Terminal Aerodrome Forecast
Issued by NWS Wilmington, NC

Current Version | Previous Version | Text Only | Print | Product List | Glossary On
Versions: 1 2 3 4 5 6 7 8 9 10 11 12 13 14 15 16
365
FTUS42 KILM 281723
TAFMYR
TAF
KMYR 281723Z 2818/2918 18010KT P6SM SCT025 BKN150
     FM290100 20009KT P6SM VCTS BKN060CB
     FM290500 23008KT P6SM -SHRA VCTS BKN040CB
     FM290600 24008KT 3SM SHRA VCTS OVC040CB
     FM291200 24012G19KT 3SM SHRA VCTS SCT008CB OVC030=

USA.gov is the U.S. government's official web portal to all federal, state and local government web resources and services.